GUCYGOOY

Guest
Details From GUCY - CONAKRY
To GOOY - Dakar Leopold Sedar Senghor Intl
Flight Number -
Tags generated
Created
Modified
Stats Distance 386 nm / 715 km
Max Altitude 34,000 ft / 10,363 m
Waypoints 8
Social Downloads 2
Likes 0
Share VATSIM

Download

Looking for another format? Having issues loading an existing format? Contact us
Advertisement - Login to hide

Notes

Basic altitude profile: - Ascent Rate: 2500ft/min - Ascent Speed: 250kts - Cruise Altitude: 35000ft - Cruise Speed: 420kts - Descent Rate: 1500ft/min - Descent Speed: 250kts Options: - Use NATs: no - Use PACOTS: no - Use low airways: yes - Use high airways: yes

Route

GUCY AXIRO B600 KIRTI UB600 ND B600F YF GOOY

ID Type Via Altitude Latitude Longitude Leg Dist Tot Dist Heading (true) Name
O GUCY APT - 0 ft / 0 m 9.57690˚ -13.61188˚ - 0 nm - CONAKRY
AXIRO FIX - 14,300 ft / 4,359 m 10.09985˚ -14.03318˚ 40 nm 40 nm 322° / 322° -
KIRTI FIX B600 (AWY-LO) 24,500 ft / 7,468 m 10.69979˚ -14.53319˚ 46 nm 86 nm 321° / 321° -
SESEL FIX UB600 (AWY-HI) 34,000 ft / 10,363 m 11.16667˚ -14.89333˚ 35 nm 121 nm 323° / 323° -
KOMOR FIX UB600 (AWY-HI) 34,000 ft / 10,363 m 12.43333˚ -15.91500˚ 96 nm 218 nm 322° / 322° -
ND NDB UB600 (AWY-HI) 24,500 ft / 7,468 m 13.34538˚ -16.65744˚ 69 nm 288 nm 322° / 321° BANJUL NDB
YF VOR B600F (AWY-LO) 5,500 ft / 1,676 m 14.74483˚ -17.47478˚ 96 nm 385 nm 331° / 330° DAKAR VOR-DME
O GOOY APT - 0 ft / 0 m 14.73971˚ -17.49023˚ 0 nm 386 nm 251° / 251° Dakar Leopold Sedar Senghor Intl

Altitude Profile

Advertisement - Login to hide

Weather


0- 5 10 15 20 25 30 35+ Temperature / ° C

Clouds and Precipitation
Forecast for 2017-12-17 00:00 UTC. Updated 2 hours ago

Ground ~20,000 ft ~40,000 ft Winds

GUCY

Details ICAO GUCY (CKY)
Name CONAKRY
Region Guinea
Timezone Africa/Conakry (UTC+0.0)
Stats Elevation 72 ft / 22 m (AMSL)
Location 9.576897° -13.611879°
Runways 1
Magnetic Variation 7.005° W

METAR

GUCY 162200Z 00000KT 3000 BR SCT015 SCT110 27/23 Q1014 NOSIG

Decode

TAF

TAF GUCY 161700Z 1618/1724 30006KT 5000 HZ NSC TEMPO 1619/1623 34006KT 4000 HZ BECMG 1703/1707 3000 BR FEW015

Decode

Departure Runways

ID Width Length Bearing (true) Bearing (mag) Surface Threshold Offset Overrun Length
06 148 ft / 45 m 10,836 ft / 3,303 m 49.26° 56.26° Asphalt 0 ft / 0 m 197 ft / 60 m
24 148 ft / 45 m 10,836 ft / 3,303 m 229.27° 236.27° Asphalt 0 ft / 0 m 197 ft / 60 m

GOOY

Details ICAO GOOY (DKR)
Name Dakar Leopold Sedar Senghor Intl
Region Senegal
Timezone Africa/Dakar (UTC+0.0)
Stats Elevation 85 ft / 26 m (AMSL)
Location 14.739711° -17.490226°
Runways 2
Magnetic Variation 7.347° W

METAR

GOOY 162200Z 36008KT 8000 NSC 22/18 Q1016

Decode

TAF

TAF GOOY 161730Z 1618/1724 04013KT 6000 NSC= TAF GBYD 161730Z 1618/1724 02008KT 8000 NSC

Decode

Destination Runways

ID Width Length Bearing (true) Bearing (mag) Surface Threshold Offset Overrun Length
03 98 ft / 30 m 4,921 ft / 1,500 m 22.31° 29.66° Asphalt 0 ft / 0 m 98 ft / 30 m
18 148 ft / 45 m 11,511 ft / 3,509 m 172.57° 179.92° Asphalt 525 ft / 160 m 197 ft / 60 m
21 98 ft / 30 m 4,921 ft / 1,500 m 202.31° 209.66° Asphalt 0 ft / 0 m 1,590 ft / 485 m
36 148 ft / 45 m 11,511 ft / 3,509 m 352.57° 359.92° Asphalt 0 ft / 0 m 197 ft / 60 m

Approach Navaids

Runway Type Ident Frequency Range Bearing (true) Bearing (mag) Slope Elevation
36 Localiser YF 110.30 MHz 18 nm / 33 km 352.33° 359.67° - 65 ft / 20 m (AMSL)
36 Glidescope YF 110.30 MHz 10 nm / 19 km 352.57° 359.92° 3.01° 73 ft / 22 m (AMSL)
36 DME YF 110.30 MHz 18 nm / 33 km - - - 73 ft / 22 m (AMSL)

Popular Alternatives